sensor_id;sensor_type;location;lat;lon;timestamp;P1;durP1;ratioP1;P2;durP2;ratioP2
15982;SDS011;14442;50.196;8.096;2022-12-15T00:00:00;6.10;;;3.90;;
15982;SDS011;14442;50.196;8.096;2022-12-15T00:02:45;4.40;;;4.00;;
15982;SDS011;14442;50.196;8.096;2022-12-15T00:05:29;4.17;;;3.77;;
15982;SDS011;14442;50.196;8.096;2022-12-15T00:08:13;4.73;;;3.70;;
15982;SDS011;14442;50.196;8.096;2022-12-15T00:10:57;4.50;;;4.10;;
15982;SDS011;14442;50.196;8.096;2022-12-15T00:13:45;4.60;;;4.30;;
15982;SDS011;14442;50.196;8.096;2022-12-15T00:16:29;4.10;;;3.70;;
15982;SDS011;14442;50.196;8.096;2022-12-15T00:19:13;4.20;;;3.80;;
15982;SDS011;14442;50.196;8.096;2022-12-15T00:21:58;6.87;;;4.60;;
15982;SDS011;14442;50.196;8.096;2022-12-15T00:24:42;4.97;;;4.37;;
15982;SDS011;14442;50.196;8.096;2022-12-15T00:27:26;6.97;;;4.70;;
15982;SDS011;14442;50.196;8.096;2022-12-15T00:30:12;5.43;;;4.43;;
15982;SDS011;14442;50.196;8.096;2022-12-15T00:32:56;5.13;;;4.60;;
15982;SDS011;14442;50.196;8.096;2022-12-15T00:35:40;5.67;;;4.27;;
15982;SDS011;14442;50.196;8.096;2022-12-15T00:38:24;8.33;;;4.47;;
15982;SDS011;14442;50.196;8.096;2022-12-15T00:41:09;4.70;;;4.30;;
15982;SDS011;14442;50.196;8.096;2022-12-15T00:43:37;4.90;;;4.30;;
15982;SDS011;14442;50.196;8.096;2022-12-15T00:46:05;5.00;;;4.50;;
15982;SDS011;14442;50.196;8.096;2022-12-15T00:48:50;4.80;;;4.40;;
15982;SDS011;14442;50.196;8.096;2022-12-15T00:51:17;4.70;;;4.20;;
15982;SDS011;14442;50.196;8.096;2022-12-15T00:53:44;4.50;;;4.03;;
15982;SDS011;14442;50.196;8.096;2022-12-15T00:56:29;4.60;;;4.30;;
15982;SDS011;14442;50.196;8.096;2022-12-15T00:59:14;5.20;;;4.70;;
15982;SDS011;14442;50.196;8.096;2022-12-15T01:02:00;4.83;;;4.43;;
15982;SDS011;14442;50.196;8.096;2022-12-15T01:04:46;5.20;;;4.80;;
15982;SDS011;14442;50.196;8.096;2022-12-15T01:07:30;4.63;;;4.27;;
15982;SDS011;14442;50.196;8.096;2022-12-15T01:10:14;4.93;;;4.43;;
15982;SDS011;14442;50.196;8.096;2022-12-15T01:12:58;5.03;;;4.63;;
15982;SDS011;14442;50.196;8.096;2022-12-15T01:15:42;5.10;;;4.70;;
15982;SDS011;14442;50.196;8.096;2022-12-15T01:18:28;4.67;;;4.27;;
15982;SDS011;14442;50.196;8.096;2022-12-15T01:21:15;4.93;;;4.53;;
15982;SDS011;14442;50.196;8.096;2022-12-15T01:23:42;5.00;;;4.60;;
15982;SDS011;14442;50.196;8.096;2022-12-15T01:26:08;4.27;;;3.97;;
15982;SDS011;14442;50.196;8.096;2022-12-15T01:28:35;4.90;;;4.50;;
15982;SDS011;14442;50.196;8.096;2022-12-15T01:31:07;4.63;;;4.33;;
15982;SDS011;14442;50.196;8.096;2022-12-15T01:33:37;4.40;;;4.00;;
15982;SDS011;14442;50.196;8.096;2022-12-15T01:36:06;4.73;;;4.33;;
15982;SDS011;14442;50.196;8.096;2022-12-15T01:38:34;4.53;;;4.13;;
15982;SDS011;14442;50.196;8.096;2022-12-15T01:41:02;4.67;;;4.27;;
15982;SDS011;14442;50.196;8.096;2022-12-15T01:43:30;4.63;;;4.23;;
15982;SDS011;14442;50.196;8.096;2022-12-15T01:46:07;4.50;;;4.10;;
15982;SDS011;14442;50.196;8.096;2022-12-15T01:48:38;4.83;;;4.33;;
15982;SDS011;14442;50.196;8.096;2022-12-15T01:51:12;4.07;;;3.77;;
15982;SDS011;14442;50.196;8.096;2022-12-15T01:53:51;4.73;;;4.07;;
15982;SDS011;14442;50.196;8.096;2022-12-15T01:56:23;4.47;;;4.17;;
15982;SDS011;14442;50.196;8.096;2022-12-15T01:58:51;4.40;;;4.07;;
15982;SDS011;14442;50.196;8.096;2022-12-15T02:01:21;4.23;;;3.90;;
15982;SDS011;14442;50.196;8.096;2022-12-15T02:03:49;4.40;;;4.07;;
15982;SDS011;14442;50.196;8.096;2022-12-15T02:06:16;4.50;;;4.10;;
15982;SDS011;14442;50.196;8.096;2022-12-15T02:08:45;4.27;;;3.90;;
15982;SDS011;14442;50.196;8.096;2022-12-15T02:14:09;4.23;;;3.93;;
15982;SDS011;14442;50.196;8.096;2022-12-15T02:16:45;3.90;;;3.60;;
15982;SDS011;14442;50.196;8.096;2022-12-15T02:19:47;3.77;;;3.47;;
15982;SDS011;14442;50.196;8.096;2022-12-15T02:22:33;3.60;;;3.40;;
15982;SDS011;14442;50.196;8.096;2022-12-15T02:25:19;3.77;;;3.50;;
15982;SDS011;14442;50.196;8.096;2022-12-15T02:28:04;3.57;;;3.27;;
15982;SDS011;14442;50.196;8.096;2022-12-15T02:30:35;3.93;;;3.63;;
15982;SDS011;14442;50.196;8.096;2022-12-15T02:33:32;3.63;;;3.43;;
15982;SDS011;14442;50.196;8.096;2022-12-15T02:36:03;3.30;;;3.07;;
15982;SDS011;14442;50.196;8.096;2022-12-15T02:38:38;3.13;;;2.93;;
15982;SDS011;14442;50.196;8.096;2022-12-15T02:43:57;3.30;;;3.10;;
15982;SDS011;14442;50.196;8.096;2022-12-15T02:46:27;3.80;;;3.50;;
15982;SDS011;14442;50.196;8.096;2022-12-15T02:49:03;2.90;;;2.70;;
15982;SDS011;14442;50.196;8.096;2022-12-15T02:51:42;2.63;;;2.50;;
15982;SDS011;14442;50.196;8.096;2022-12-15T02:54:26;3.53;;;3.23;;
15982;SDS011;14442;50.196;8.096;2022-12-15T02:56:59;3.03;;;2.83;;
15982;SDS011;14442;50.196;8.096;2022-12-15T02:59:35;2.70;;;2.57;;
15982;SDS011;14442;50.196;8.096;2022-12-15T03:02:07;2.93;;;2.70;;
15982;SDS011;14442;50.196;8.096;2022-12-15T03:04:36;2.77;;;2.57;;
15982;SDS011;14442;50.196;8.096;2022-12-15T03:07:05;3.23;;;2.93;;
15982;SDS011;14442;50.196;8.096;2022-12-15T03:09:34;2.57;;;2.37;;
15982;SDS011;14442;50.196;8.096;2022-12-15T03:12:01;3.00;;;2.70;;
15982;SDS011;14442;50.196;8.096;2022-12-15T03:14:28;2.90;;;2.77;;
15982;SDS011;14442;50.196;8.096;2022-12-15T03:16:55;2.67;;;2.50;;
15982;SDS011;14442;50.196;8.096;2022-12-15T03:19:23;2.70;;;2.50;;
15982;SDS011;14442;50.196;8.096;2022-12-15T03:21:50;2.90;;;2.70;;
15982;SDS011;14442;50.196;8.096;2022-12-15T03:24:17;3.07;;;2.87;;
15982;SDS011;14442;50.196;8.096;2022-12-15T03:26:44;2.60;;;2.50;;
15982;SDS011;14442;50.196;8.096;2022-12-15T03:29:13;2.50;;;2.30;;
15982;SDS011;14442;50.196;8.096;2022-12-15T03:31:40;2.87;;;2.67;;
15982;SDS011;14442;50.196;8.096;2022-12-15T03:34:08;2.50;;;2.30;;
15982;SDS011;14442;50.196;8.096;2022-12-15T03:36:36;2.13;;;2.03;;
15982;SDS011;14442;50.196;8.096;2022-12-15T03:39:03;3.07;;;2.87;;
15982;SDS011;14442;50.196;8.096;2022-12-15T03:41:30;2.73;;;2.53;;
15982;SDS011;14442;50.196;8.096;2022-12-15T03:43:57;2.70;;;2.50;;
15982;SDS011;14442;50.196;8.096;2022-12-15T03:46:24;3.20;;;3.00;;
15982;SDS011;14442;50.196;8.096;2022-12-15T03:48:50;2.57;;;2.37;;
15982;SDS011;14442;50.196;8.096;2022-12-15T03:51:17;2.83;;;2.63;;
15982;SDS011;14442;50.196;8.096;2022-12-15T03:53:45;2.50;;;2.40;;
15982;SDS011;14442;50.196;8.096;2022-12-15T03:56:13;2.27;;;2.17;;
15982;SDS011;14442;50.196;8.096;2022-12-15T03:58:40;2.50;;;2.30;;
15982;SDS011;14442;50.196;8.096;2022-12-15T04:01:08;2.53;;;2.43;;
15982;SDS011;14442;50.196;8.096;2022-12-15T04:03:36;2.37;;;2.27;;
15982;SDS011;14442;50.196;8.096;2022-12-15T04:06:02;2.37;;;2.27;;
15982;SDS011;14442;50.196;8.096;2022-12-15T04:08:29;2.83;;;2.70;;
15982;SDS011;14442;50.196;8.096;2022-12-15T04:10:57;2.40;;;2.30;;
15982;SDS011;14442;50.196;8.096;2022-12-15T04:13:24;2.57;;;2.47;;
15982;SDS011;14442;50.196;8.096;2022-12-15T04:15:51;2.77;;;2.57;;
15982;SDS011;14442;50.196;8.096;2022-12-15T04:18:17;3.43;;;2.50;;
15982;SDS011;14442;50.196;8.096;2022-12-15T04:20:44;2.77;;;2.57;;
15982;SDS011;14442;50.196;8.096;2022-12-15T04:23:10;2.63;;;2.43;;
15982;SDS011;14442;50.196;8.096;2022-12-15T04:25:36;2.50;;;2.30;;
15982;SDS011;14442;50.196;8.096;2022-12-15T04:28:22;2.77;;;2.60;;
15982;SDS011;14442;50.196;8.096;2022-12-15T04:31:07;3.00;;;2.80;;
15982;SDS011;14442;50.196;8.096;2022-12-15T04:33:53;2.57;;;2.43;;
15982;SDS011;14442;50.196;8.096;2022-12-15T04:36:39;3.20;;;2.90;;
15982;SDS011;14442;50.196;8.096;2022-12-15T04:39:26;2.43;;;2.33;;
15982;SDS011;14442;50.196;8.096;2022-12-15T04:42:10;2.80;;;2.60;;
15982;SDS011;14442;50.196;8.096;2022-12-15T04:44:57;2.80;;;2.67;;
15982;SDS011;14442;50.196;8.096;2022-12-15T04:47:44;2.90;;;2.70;;
15982;SDS011;14442;50.196;8.096;2022-12-15T04:50:28;2.63;;;2.43;;
15982;SDS011;14442;50.196;8.096;2022-12-15T04:53:13;2.50;;;2.40;;
15982;SDS011;14442;50.196;8.096;2022-12-15T04:55:59;3.03;;;2.83;;
15982;SDS011;14442;50.196;8.096;2022-12-15T04:58:44;3.00;;;2.80;;
15982;SDS011;14442;50.196;8.096;2022-12-15T05:01:31;3.07;;;2.87;;
15982;SDS011;14442;50.196;8.096;2022-12-15T05:04:15;2.47;;;2.30;;
15982;SDS011;14442;50.196;8.096;2022-12-15T05:07:00;2.43;;;2.33;;
15982;SDS011;14442;50.196;8.096;2022-12-15T05:09:44;2.83;;;2.63;;
15982;SDS011;14442;50.196;8.096;2022-12-15T05:12:28;2.60;;;2.40;;
15982;SDS011;14442;50.196;8.096;2022-12-15T05:15:12;3.00;;;2.80;;
15982;SDS011;14442;50.196;8.096;2022-12-15T05:17:58;3.20;;;3.00;;
15982;SDS011;14442;50.196;8.096;2022-12-15T05:20:42;2.87;;;2.67;;
15982;SDS011;14442;50.196;8.096;2022-12-15T05:23:26;2.90;;;2.70;;
15982;SDS011;14442;50.196;8.096;2022-12-15T05:26:10;2.90;;;2.70;;
15982;SDS011;14442;50.196;8.096;2022-12-15T05:28:54;3.47;;;3.27;;
15982;SDS011;14442;50.196;8.096;2022-12-15T05:31:39;3.00;;;2.80;;
15982;SDS011;14442;50.196;8.096;2022-12-15T05:34:14;3.20;;;3.00;;
15982;SDS011;14442;50.196;8.096;2022-12-15T05:36:41;3.20;;;3.00;;
15982;SDS011;14442;50.196;8.096;2022-12-15T05:39:08;3.57;;;3.27;;
15982;SDS011;14442;50.196;8.096;2022-12-15T05:41:34;3.13;;;2.93;;
15982;SDS011;14442;50.196;8.096;2022-12-15T05:44:01;3.27;;;3.07;;
15982;SDS011;14442;50.196;8.096;2022-12-15T05:46:28;3.60;;;3.30;;
15982;SDS011;14442;50.196;8.096;2022-12-15T05:48:54;3.23;;;3.03;;
15982;SDS011;14442;50.196;8.096;2022-12-15T05:51:22;3.30;;;3.10;;
15982;SDS011;14442;50.196;8.096;2022-12-15T05:53:49;3.30;;;3.00;;
15982;SDS011;14442;50.196;8.096;2022-12-15T05:56:16;3.97;;;3.03;;
15982;SDS011;14442;50.196;8.096;2022-12-15T05:58:42;4.13;;;2.90;;
15982;SDS011;14442;50.196;8.096;2022-12-15T06:01:10;3.27;;;3.07;;
15982;SDS011;14442;50.196;8.096;2022-12-15T06:03:38;3.40;;;3.20;;
15982;SDS011;14442;50.196;8.096;2022-12-15T06:06:05;4.10;;;3.70;;
15982;SDS011;14442;50.196;8.096;2022-12-15T06:08:35;3.53;;;3.20;;
15982;SDS011;14442;50.196;8.096;2022-12-15T06:11:03;3.13;;;2.93;;
15982;SDS011;14442;50.196;8.096;2022-12-15T06:13:30;3.93;;;3.63;;
15982;SDS011;14442;50.196;8.096;2022-12-15T06:16:00;3.43;;;3.23;;
15982;SDS011;14442;50.196;8.096;2022-12-15T06:18:28;3.63;;;3.13;;
15982;SDS011;14442;50.196;8.096;2022-12-15T06:20:57;3.00;;;2.80;;
15982;SDS011;14442;50.196;8.096;2022-12-15T06:23:24;3.40;;;3.20;;
15982;SDS011;14442;50.196;8.096;2022-12-15T06:25:53;3.07;;;2.87;;
15982;SDS011;14442;50.196;8.096;2022-12-15T06:28:20;2.67;;;2.47;;
15982;SDS011;14442;50.196;8.096;2022-12-15T06:30:47;3.20;;;3.00;;
15982;SDS011;14442;50.196;8.096;2022-12-15T06:33:15;3.50;;;3.20;;
15982;SDS011;14442;50.196;8.096;2022-12-15T06:35:42;3.53;;;3.23;;
15982;SDS011;14442;50.196;8.096;2022-12-15T06:38:09;3.40;;;3.20;;
15982;SDS011;14442;50.196;8.096;2022-12-15T06:40:35;3.10;;;2.90;;
15982;SDS011;14442;50.196;8.096;2022-12-15T06:43:03;3.30;;;3.10;;
15982;SDS011;14442;50.196;8.096;2022-12-15T06:45:30;3.30;;;3.10;;
15982;SDS011;14442;50.196;8.096;2022-12-15T06:47:56;3.10;;;2.90;;
15982;SDS011;14442;50.196;8.096;2022-12-15T06:50:23;3.10;;;2.90;;
15982;SDS011;14442;50.196;8.096;2022-12-15T06:52:50;3.17;;;2.97;;
15982;SDS011;14442;50.196;8.096;2022-12-15T06:55:16;3.13;;;2.93;;
15982;SDS011;14442;50.196;8.096;2022-12-15T06:57:45;3.37;;;3.17;;
15982;SDS011;14442;50.196;8.096;2022-12-15T07:00:14;3.20;;;3.00;;
15982;SDS011;14442;50.196;8.096;2022-12-15T07:02:41;3.87;;;3.57;;
15982;SDS011;14442;50.196;8.096;2022-12-15T07:05:08;3.23;;;3.03;;
15982;SDS011;14442;50.196;8.096;2022-12-15T07:07:34;3.50;;;3.30;;
15982;SDS011;14442;50.196;8.096;2022-12-15T07:10:01;2.60;;;2.40;;
15982;SDS011;14442;50.196;8.096;2022-12-15T07:12:28;3.50;;;3.20;;
15982;SDS011;14442;50.196;8.096;2022-12-15T07:14:54;3.60;;;3.40;;
15982;SDS011;14442;50.196;8.096;2022-12-15T07:17:22;2.90;;;2.70;;
15982;SDS011;14442;50.196;8.096;2022-12-15T07:19:49;2.50;;;2.40;;
15982;SDS011;14442;50.196;8.096;2022-12-15T07:22:16;2.70;;;2.50;;
15982;SDS011;14442;50.196;8.096;2022-12-15T07:24:42;3.10;;;2.90;;
15982;SDS011;14442;50.196;8.096;2022-12-15T07:27:10;2.97;;;2.70;;
15982;SDS011;14442;50.196;8.096;2022-12-15T07:29:36;2.73;;;2.53;;
15982;SDS011;14442;50.196;8.096;2022-12-15T07:32:03;2.97;;;2.77;;
15982;SDS011;14442;50.196;8.096;2022-12-15T07:34:31;2.70;;;2.50;;
15982;SDS011;14442;50.196;8.096;2022-12-15T07:36:58;3.03;;;2.83;;
15982;SDS011;14442;50.196;8.096;2022-12-15T07:39:25;2.73;;;2.53;;
15982;SDS011;14442;50.196;8.096;2022-12-15T07:41:52;2.97;;;2.77;;
15982;SDS011;14442;50.196;8.096;2022-12-15T07:44:19;2.97;;;2.77;;
15982;SDS011;14442;50.196;8.096;2022-12-15T07:46:45;2.53;;;2.43;;
15982;SDS011;14442;50.196;8.096;2022-12-15T07:49:13;2.50;;;2.40;;
15982;SDS011;14442;50.196;8.096;2022-12-15T07:51:41;2.90;;;2.50;;
15982;SDS011;14442;50.196;8.096;2022-12-15T07:54:09;3.27;;;2.90;;
15982;SDS011;14442;50.196;8.096;2022-12-15T07:56:36;2.73;;;2.60;;
15982;SDS011;14442;50.196;8.096;2022-12-15T07:59:03;2.97;;;2.77;;
15982;SDS011;14442;50.196;8.096;2022-12-15T08:01:30;3.30;;;3.00;;
15982;SDS011;14442;50.196;8.096;2022-12-15T08:03:57;2.80;;;2.60;;
15982;SDS011;14442;50.196;8.096;2022-12-15T08:06:23;2.93;;;2.73;;
15982;SDS011;14442;50.196;8.096;2022-12-15T08:08:51;2.90;;;2.70;;
15982;SDS011;14442;50.196;8.096;2022-12-15T08:11:19;2.60;;;2.40;;
15982;SDS011;14442;50.196;8.096;2022-12-15T08:13:47;4.50;;;2.80;;
15982;SDS011;14442;50.196;8.096;2022-12-15T08:16:14;4.23;;;3.83;;
15982;SDS011;14442;50.196;8.096;2022-12-15T08:18:41;6.90;;;4.10;;
15982;SDS011;14442;50.196;8.096;2022-12-15T08:21:10;5.63;;;4.07;;
15982;SDS011;14442;50.196;8.096;2022-12-15T08:23:37;4.47;;;3.47;;
15982;SDS011;14442;50.196;8.096;2022-12-15T08:26:06;6.17;;;3.50;;
15982;SDS011;14442;50.196;8.096;2022-12-15T08:28:34;6.13;;;3.97;;
15982;SDS011;14442;50.196;8.096;2022-12-15T08:31:02;5.97;;;3.83;;
15982;SDS011;14442;50.196;8.096;2022-12-15T08:33:29;6.20;;;3.90;;
15982;SDS011;14442;50.196;8.096;2022-12-15T08:35:56;4.03;;;3.70;;
15982;SDS011;14442;50.196;8.096;2022-12-15T08:38:24;3.90;;;3.60;;
15982;SDS011;14442;50.196;8.096;2022-12-15T08:40:50;3.67;;;3.37;;
15982;SDS011;14442;50.196;8.096;2022-12-15T08:43:18;3.63;;;2.90;;
15982;SDS011;14442;50.196;8.096;2022-12-15T08:45:45;3.90;;;3.40;;
15982;SDS011;14442;50.196;8.096;2022-12-15T08:48:12;7.33;;;3.33;;
15982;SDS011;14442;50.196;8.096;2022-12-15T08:50:41;4.47;;;3.20;;
15982;SDS011;14442;50.196;8.096;2022-12-15T08:53:09;4.30;;;2.83;;
15982;SDS011;14442;50.196;8.096;2022-12-15T08:55:36;6.77;;;3.63;;
15982;SDS011;14442;50.196;8.096;2022-12-15T08:58:02;4.63;;;3.07;;
15982;SDS011;14442;50.196;8.096;2022-12-15T09:00:30;3.60;;;3.03;;
15982;SDS011;14442;50.196;8.096;2022-12-15T09:02:57;4.73;;;2.90;;
15982;SDS011;14442;50.196;8.096;2022-12-15T09:05:25;4.20;;;2.87;;
15982;SDS011;14442;50.196;8.096;2022-12-15T09:07:52;2.90;;;2.70;;
15982;SDS011;14442;50.196;8.096;2022-12-15T09:10:20;3.03;;;2.77;;
15982;SDS011;14442;50.196;8.096;2022-12-15T09:12:47;5.00;;;3.20;;
15982;SDS011;14442;50.196;8.096;2022-12-15T09:15:15;4.17;;;2.80;;
15982;SDS011;14442;50.196;8.096;2022-12-15T09:17:44;6.13;;;2.93;;
15982;SDS011;14442;50.196;8.096;2022-12-15T09:20:10;4.90;;;2.70;;
15982;SDS011;14442;50.196;8.096;2022-12-15T09:22:38;2.90;;;2.70;;
15982;SDS011;14442;50.196;8.096;2022-12-15T09:25:05;8.67;;;3.10;;
15982;SDS011;14442;50.196;8.096;2022-12-15T09:27:32;6.40;;;3.17;;
15982;SDS011;14442;50.196;8.096;2022-12-15T09:29:59;7.40;;;3.03;;
15982;SDS011;14442;50.196;8.096;2022-12-15T09:32:26;3.00;;;2.67;;
15982;SDS011;14442;50.196;8.096;2022-12-15T09:34:54;2.33;;;2.13;;
15982;SDS011;14442;50.196;8.096;2022-12-15T09:37:21;5.70;;;3.00;;
15982;SDS011;14442;50.196;8.096;2022-12-15T09:39:47;4.23;;;2.90;;
15982;SDS011;14442;50.196;8.096;2022-12-15T09:42:18;3.10;;;2.80;;
15982;SDS011;14442;50.196;8.096;2022-12-15T09:44:48;3.73;;;2.73;;
15982;SDS011;14442;50.196;8.096;2022-12-15T09:47:20;3.83;;;3.53;;
15982;SDS011;14442;50.196;8.096;2022-12-15T09:49:55;5.27;;;3.37;;
15982;SDS011;14442;50.196;8.096;2022-12-15T09:52:24;4.07;;;3.27;;
15982;SDS011;14442;50.196;8.096;2022-12-15T09:54:53;3.30;;;2.93;;
15982;SDS011;14442;50.196;8.096;2022-12-15T09:57:24;3.10;;;2.80;;
15982;SDS011;14442;50.196;8.096;2022-12-15T09:59:59;4.83;;;2.83;;
15982;SDS011;14442;50.196;8.096;2022-12-15T10:02:38;3.93;;;3.30;;
15982;SDS011;14442;50.196;8.096;2022-12-15T10:05:24;4.60;;;2.40;;
15982;SDS011;14442;50.196;8.096;2022-12-15T10:08:01;4.47;;;3.13;;
15982;SDS011;14442;50.196;8.096;2022-12-15T10:10:29;4.00;;;3.00;;
15982;SDS011;14442;50.196;8.096;2022-12-15T10:12:59;4.90;;;2.87;;
15982;SDS011;14442;50.196;8.096;2022-12-15T10:15:39;4.07;;;2.70;;
15982;SDS011;14442;50.196;8.096;2022-12-15T10:18:12;6.37;;;3.47;;
15982;SDS011;14442;50.196;8.096;2022-12-15T10:20:45;4.10;;;2.77;;
15982;SDS011;14442;50.196;8.096;2022-12-15T10:23:12;3.23;;;2.90;;
15982;SDS011;14442;50.196;8.096;2022-12-15T10:25:43;3.40;;;2.70;;
15982;SDS011;14442;50.196;8.096;2022-12-15T10:28:25;3.87;;;2.77;;
15982;SDS011;14442;50.196;8.096;2022-12-15T10:31:21;4.23;;;2.60;;
15982;SDS011;14442;50.196;8.096;2022-12-15T10:33:53;2.83;;;2.63;;
15982;SDS011;14442;50.196;8.096;2022-12-15T10:36:24;5.50;;;2.70;;
15982;SDS011;14442;50.196;8.096;2022-12-15T10:38:51;3.10;;;2.63;;
15982;SDS011;14442;50.196;8.096;2022-12-15T10:41:18;4.77;;;2.73;;
15982;SDS011;14442;50.196;8.096;2022-12-15T10:43:46;3.80;;;2.60;;
15982;SDS011;14442;50.196;8.096;2022-12-15T10:46:15;4.50;;;3.20;;
15982;SDS011;14442;50.196;8.096;2022-12-15T10:48:44;4.10;;;2.63;;
15982;SDS011;14442;50.196;8.096;2022-12-15T10:51:19;3.23;;;2.73;;
15982;SDS011;14442;50.196;8.096;2022-12-15T10:53:52;2.80;;;2.60;;
15982;SDS011;14442;50.196;8.096;2022-12-15T10:56:22;2.50;;;2.30;;
15982;SDS011;14442;50.196;8.096;2022-12-15T10:58:50;4.33;;;2.60;;
15982;SDS011;14442;50.196;8.096;2022-12-15T11:01:19;2.83;;;2.50;;
15982;SDS011;14442;50.196;8.096;2022-12-15T11:03:48;3.00;;;2.80;;
15982;SDS011;14442;50.196;8.096;2022-12-15T11:06:17;4.00;;;2.70;;
15982;SDS011;14442;50.196;8.096;2022-12-15T11:08:46;2.70;;;2.50;;
15982;SDS011;14442;50.196;8.096;2022-12-15T11:11:29;2.23;;;2.13;;
15982;SDS011;14442;50.196;8.096;2022-12-15T11:14:17;3.17;;;2.90;;
15982;SDS011;14442;50.196;8.096;2022-12-15T11:16:49;5.50;;;3.13;;
15982;SDS011;14442;50.196;8.096;2022-12-15T11:19:25;4.80;;;3.30;;
15982;SDS011;14442;50.196;8.096;2022-12-15T11:21:58;4.47;;;2.80;;
15982;SDS011;14442;50.196;8.096;2022-12-15T11:24:31;2.97;;;2.77;;
15982;SDS011;14442;50.196;8.096;2022-12-15T11:27:08;3.93;;;2.90;;
15982;SDS011;14442;50.196;8.096;2022-12-15T11:29:43;2.90;;;2.70;;
15982;SDS011;14442;50.196;8.096;2022-12-15T11:32:16;3.73;;;2.80;;
15982;SDS011;14442;50.196;8.096;2022-12-15T11:34:47;3.03;;;2.83;;
15982;SDS011;14442;50.196;8.096;2022-12-15T11:37:20;3.33;;;3.10;;
15982;SDS011;14442;50.196;8.096;2022-12-15T11:40:18;3.10;;;2.90;;
15982;SDS011;14442;50.196;8.096;2022-12-15T11:46:08;9.37;;;4.60;;
15982;SDS011;14442;50.196;8.096;2022-12-15T11:48:46;5.73;;;3.80;;
15982;SDS011;14442;50.196;8.096;2022-12-15T11:51:23;4.80;;;3.60;;
15982;SDS011;14442;50.196;8.096;2022-12-15T11:54:01;5.03;;;3.77;;
15982;SDS011;14442;50.196;8.096;2022-12-15T11:56:43;5.93;;;3.20;;
15982;SDS011;14442;50.196;8.096;2022-12-15T12:05:36;6.73;;;4.17;;
15982;SDS011;14442;50.196;8.096;2022-12-15T12:08:13;4.47;;;3.60;;
15982;SDS011;14442;50.196;8.096;2022-12-15T12:10:53;7.53;;;3.87;;
15982;SDS011;14442;50.196;8.096;2022-12-15T12:13:27;5.63;;;3.40;;
15982;SDS011;14442;50.196;8.096;2022-12-15T12:16:03;4.03;;;3.60;;
15982;SDS011;14442;50.196;8.096;2022-12-15T12:18:39;4.77;;;3.40;;
15982;SDS011;14442;50.196;8.096;2022-12-15T12:21:12;4.60;;;3.77;;
15982;SDS011;14442;50.196;8.096;2022-12-15T12:23:44;6.07;;;3.83;;
15982;SDS011;14442;50.196;8.096;2022-12-15T12:26:18;3.67;;;3.17;;
15982;SDS011;14442;50.196;8.096;2022-12-15T12:28:50;7.90;;;3.77;;
15982;SDS011;14442;50.196;8.096;2022-12-15T12:31:25;6.70;;;3.93;;
15982;SDS011;14442;50.196;8.096;2022-12-15T12:34:00;7.37;;;4.10;;
15982;SDS011;14442;50.196;8.096;2022-12-15T12:36:33;6.37;;;3.70;;
15982;SDS011;14442;50.196;8.096;2022-12-15T12:39:01;6.17;;;3.63;;
15982;SDS011;14442;50.196;8.096;2022-12-15T12:41:31;9.17;;;3.57;;
15982;SDS011;14442;50.196;8.096;2022-12-15T12:44:03;6.63;;;3.90;;
15982;SDS011;14442;50.196;8.096;2022-12-15T12:46:38;4.10;;;3.23;;
15982;SDS011;14442;50.196;8.096;2022-12-15T12:49:12;7.90;;;3.53;;
15982;SDS011;14442;50.196;8.096;2022-12-15T12:51:48;7.07;;;3.93;;
15982;SDS011;14442;50.196;8.096;2022-12-15T12:57:26;3.57;;;3.20;;
15982;SDS011;14442;50.196;8.096;2022-12-15T12:59:57;5.70;;;3.57;;
15982;SDS011;14442;50.196;8.096;2022-12-15T13:02:40;4.10;;;3.70;;
15982;SDS011;14442;50.196;8.096;2022-12-15T13:05:23;3.47;;;3.20;;
15982;SDS011;14442;50.196;8.096;2022-12-15T13:07:52;4.20;;;3.03;;
15982;SDS011;14442;50.196;8.096;2022-12-15T13:10:21;3.50;;;3.20;;
15982;SDS011;14442;50.196;8.096;2022-12-15T13:12:49;3.87;;;3.47;;
15982;SDS011;14442;50.196;8.096;2022-12-15T13:15:17;3.67;;;3.00;;
15982;SDS011;14442;50.196;8.096;2022-12-15T13:18:04;4.00;;;3.50;;
15982;SDS011;14442;50.196;8.096;2022-12-15T13:20:37;4.07;;;3.13;;
15982;SDS011;14442;50.196;8.096;2022-12-15T13:26:10;6.00;;;3.00;;
15982;SDS011;14442;50.196;8.096;2022-12-15T13:28:43;4.17;;;3.47;;
15982;SDS011;14442;50.196;8.096;2022-12-15T13:31:28;3.80;;;3.10;;
15982;SDS011;14442;50.196;8.096;2022-12-15T13:34:00;3.90;;;3.23;;
15982;SDS011;14442;50.196;8.096;2022-12-15T13:42:26;3.47;;;3.20;;
15982;SDS011;14442;50.196;8.096;2022-12-15T13:48:04;3.17;;;2.97;;
15982;SDS011;14442;50.196;8.096;2022-12-15T13:50:39;3.50;;;3.30;;
15982;SDS011;14442;50.196;8.096;2022-12-15T13:53:15;3.87;;;3.03;;
15982;SDS011;14442;50.196;8.096;2022-12-15T13:55:50;3.10;;;2.83;;
15982;SDS011;14442;50.196;8.096;2022-12-15T13:58:20;3.27;;;3.07;;
15982;SDS011;14442;50.196;8.096;2022-12-15T14:00:49;3.30;;;3.00;;
15982;SDS011;14442;50.196;8.096;2022-12-15T14:03:18;3.40;;;3.10;;
15982;SDS011;14442;50.196;8.096;2022-12-15T14:05:51;3.13;;;2.93;;
15982;SDS011;14442;50.196;8.096;2022-12-15T14:08:20;3.50;;;3.20;;
15982;SDS011;14442;50.196;8.096;2022-12-15T14:10:50;3.53;;;3.23;;
15982;SDS011;14442;50.196;8.096;2022-12-15T14:13:19;3.00;;;2.80;;
15982;SDS011;14442;50.196;8.096;2022-12-15T14:15:49;3.33;;;3.13;;
15982;SDS011;14442;50.196;8.096;2022-12-15T14:18:23;3.20;;;3.00;;
15982;SDS011;14442;50.196;8.096;2022-12-15T14:20:53;3.07;;;2.87;;
15982;SDS011;14442;50.196;8.096;2022-12-15T14:23:23;3.40;;;3.20;;
15982;SDS011;14442;50.196;8.096;2022-12-15T14:25:51;2.93;;;2.73;;
15982;SDS011;14442;50.196;8.096;2022-12-15T14:28:23;3.40;;;3.10;;
15982;SDS011;14442;50.196;8.096;2022-12-15T14:30:56;3.40;;;3.10;;
15982;SDS011;14442;50.196;8.096;2022-12-15T14:33:25;3.93;;;3.63;;
15982;SDS011;14442;50.196;8.096;2022-12-15T14:35:52;3.10;;;2.90;;
15982;SDS011;14442;50.196;8.096;2022-12-15T14:38:25;3.40;;;3.10;;
15982;SDS011;14442;50.196;8.096;2022-12-15T14:40:56;3.00;;;2.80;;
15982;SDS011;14442;50.196;8.096;2022-12-15T14:43:27;3.40;;;3.20;;
15982;SDS011;14442;50.196;8.096;2022-12-15T14:46:03;3.17;;;2.97;;
15982;SDS011;14442;50.196;8.096;2022-12-15T14:48:33;3.20;;;3.00;;
15982;SDS011;14442;50.196;8.096;2022-12-15T14:51:02;3.40;;;3.20;;
15982;SDS011;14442;50.196;8.096;2022-12-15T14:53:32;3.43;;;3.23;;
15982;SDS011;14442;50.196;8.096;2022-12-15T14:56:10;3.67;;;3.47;;
15982;SDS011;14442;50.196;8.096;2022-12-15T14:58:52;4.10;;;3.70;;
15982;SDS011;14442;50.196;8.096;2022-12-15T15:01:24;3.57;;;3.37;;
15982;SDS011;14442;50.196;8.096;2022-12-15T15:03:56;3.90;;;3.60;;
15982;SDS011;14442;50.196;8.096;2022-12-15T15:06:28;4.37;;;4.00;;
15982;SDS011;14442;50.196;8.096;2022-12-15T15:11:49;4.93;;;4.40;;
15982;SDS011;14442;50.196;8.096;2022-12-15T15:14:18;4.53;;;4.20;;
15982;SDS011;14442;50.196;8.096;2022-12-15T15:16:57;4.40;;;4.00;;
15982;SDS011;14442;50.196;8.096;2022-12-15T15:19:25;4.33;;;4.03;;
15982;SDS011;14442;50.196;8.096;2022-12-15T15:21:52;5.00;;;4.33;;
15982;SDS011;14442;50.196;8.096;2022-12-15T15:24:22;4.57;;;4.20;;
15982;SDS011;14442;50.196;8.096;2022-12-15T15:26:50;5.77;;;4.50;;
15982;SDS011;14442;50.196;8.096;2022-12-15T15:29:29;4.67;;;4.27;;
15982;SDS011;14442;50.196;8.096;2022-12-15T15:32:03;4.40;;;4.10;;
15982;SDS011;14442;50.196;8.096;2022-12-15T15:34:31;4.83;;;4.33;;
15982;SDS011;14442;50.196;8.096;2022-12-15T15:37:00;4.57;;;4.17;;
15982;SDS011;14442;50.196;8.096;2022-12-15T15:39:31;4.87;;;4.47;;
15982;SDS011;14442;50.196;8.096;2022-12-15T15:42:02;4.83;;;4.43;;
15982;SDS011;14442;50.196;8.096;2022-12-15T15:44:30;9.23;;;5.10;;
15982;SDS011;14442;50.196;8.096;2022-12-15T15:46:57;10.40;;;6.30;;
15982;SDS011;14442;50.196;8.096;2022-12-15T15:49:24;23.97;;;8.83;;
15982;SDS011;14442;50.196;8.096;2022-12-15T15:51:51;39.57;;;12.97;;